sensor_id;sensor_type;location;lat;lon;timestamp;temperature;humidity
25983;DHT22;13773;48.868;10.730;2024-02-23T00:02:04;6.90;99.90
25983;DHT22;13773;48.868;10.730;2024-02-23T00:04:30;6.90;99.90
25983;DHT22;13773;48.868;10.730;2024-02-23T00:06:56;7.00;99.90
25983;DHT22;13773;48.868;10.730;2024-02-23T00:09:22;7.00;99.90
25983;DHT22;13773;48.868;10.730;2024-02-23T00:11:47;7.10;99.90
25983;DHT22;13773;48.868;10.730;2024-02-23T00:14:16;7.10;99.90
25983;DHT22;13773;48.868;10.730;2024-02-23T00:16:44;6.40;99.90
25983;DHT22;13773;48.868;10.730;2024-02-23T00:19:10;5.50;99.90
25983;DHT22;13773;48.868;10.730;2024-02-23T00:21:38;5.00;99.90
25983;DHT22;13773;48.868;10.730;2024-02-23T00:24:06;4.80;99.90
25983;DHT22;13773;48.868;10.730;2024-02-23T00:26:31;4.80;99.90
25983;DHT22;13773;48.868;10.730;2024-02-23T00:28:57;4.60;99.90
25983;DHT22;13773;48.868;10.730;2024-02-23T00:31:23;4.50;99.90
25983;DHT22;13773;48.868;10.730;2024-02-23T00:33:48;4.50;99.90
25983;DHT22;13773;48.868;10.730;2024-02-23T00:36:14;4.40;99.90
25983;DHT22;13773;48.868;10.730;2024-02-23T00:38:40;4.30;99.90
25983;DHT22;13773;48.868;10.730;2024-02-23T00:41:05;4.30;99.90
25983;DHT22;13773;48.868;10.730;2024-02-23T00:43:41;4.30;99.90
25983;DHT22;13773;48.868;10.730;2024-02-23T00:46:07;4.20;99.90
25983;DHT22;13773;48.868;10.730;2024-02-23T00:48:33;4.10;99.90
25983;DHT22;13773;48.868;10.730;2024-02-23T00:50:59;4.10;99.90
25983;DHT22;13773;48.868;10.730;2024-02-23T00:53:24;4.00;99.90
25983;DHT22;13773;48.868;10.730;2024-02-23T00:55:50;3.90;99.90
25983;DHT22;13773;48.868;10.730;2024-02-23T00:58:16;3.90;99.90
25983;DHT22;13773;48.868;10.730;2024-02-23T01:00:41;3.80;99.90
25983;DHT22;13773;48.868;10.730;2024-02-23T01:03:07;3.90;99.90
25983;DHT22;13773;48.868;10.730;2024-02-23T01:05:33;3.80;99.90
25983;DHT22;13773;48.868;10.730;2024-02-23T01:07:59;3.80;99.90
25983;DHT22;13773;48.868;10.730;2024-02-23T01:10:24;3.80;99.90
25983;DHT22;13773;48.868;10.730;2024-02-23T01:12:50;3.90;99.90
25983;DHT22;13773;48.868;10.730;2024-02-23T01:15:16;3.90;99.90
25983;DHT22;13773;48.868;10.730;2024-02-23T01:17:41;3.90;99.90
25983;DHT22;13773;48.868;10.730;2024-02-23T01:20:07;3.90;99.90
25983;DHT22;13773;48.868;10.730;2024-02-23T01:22:33;3.90;99.90
25983;DHT22;13773;48.868;10.730;2024-02-23T01:24:59;3.90;99.90
25983;DHT22;13773;48.868;10.730;2024-02-23T01:27:24;3.90;99.90
25983;DHT22;13773;48.868;10.730;2024-02-23T01:29:50;4.00;99.90
25983;DHT22;13773;48.868;10.730;2024-02-23T01:32:16;4.00;99.90
25983;DHT22;13773;48.868;10.730;2024-02-23T01:34:41;4.00;99.90
25983;DHT22;13773;48.868;10.730;2024-02-23T01:37:07;4.00;99.90
25983;DHT22;13773;48.868;10.730;2024-02-23T01:39:33;4.00;99.90
25983;DHT22;13773;48.868;10.730;2024-02-23T01:41:59;4.10;99.90
25983;DHT22;13773;48.868;10.730;2024-02-23T01:44:24;4.10;99.90
25983;DHT22;13773;48.868;10.730;2024-02-23T01:46:50;4.10;99.90
25983;DHT22;13773;48.868;10.730;2024-02-23T01:49:17;4.10;99.90
25983;DHT22;13773;48.868;10.730;2024-02-23T01:51:43;4.20;99.90
25983;DHT22;13773;48.868;10.730;2024-02-23T01:54:09;4.20;99.90
25983;DHT22;13773;48.868;10.730;2024-02-23T01:56:36;4.20;99.90
25983;DHT22;13773;48.868;10.730;2024-02-23T01:59:05;4.20;99.90
25983;DHT22;13773;48.868;10.730;2024-02-23T02:01:31;4.30;99.90
25983;DHT22;13773;48.868;10.730;2024-02-23T02:03:58;4.30;99.90
25983;DHT22;13773;48.868;10.730;2024-02-23T02:06:24;4.30;99.90
25983;DHT22;13773;48.868;10.730;2024-02-23T02:08:50;4.20;99.90
25983;DHT22;13773;48.868;10.730;2024-02-23T02:11:16;4.20;99.90
25983;DHT22;13773;48.868;10.730;2024-02-23T02:13:41;4.20;99.90
25983;DHT22;13773;48.868;10.730;2024-02-23T02:16:07;4.20;99.90
25983;DHT22;13773;48.868;10.730;2024-02-23T02:18:33;4.20;99.90
25983;DHT22;13773;48.868;10.730;2024-02-23T02:20:59;4.20;99.90
25983;DHT22;13773;48.868;10.730;2024-02-23T02:23:25;4.20;99.90
25983;DHT22;13773;48.868;10.730;2024-02-23T02:25:58;4.20;99.90
25983;DHT22;13773;48.868;10.730;2024-02-23T02:28:25;4.20;99.90
25983;DHT22;13773;48.868;10.730;2024-02-23T02:30:51;4.20;99.90
25983;DHT22;13773;48.868;10.730;2024-02-23T02:33:18;4.20;99.90
25983;DHT22;13773;48.868;10.730;2024-02-23T02:35:44;4.20;99.90
25983;DHT22;13773;48.868;10.730;2024-02-23T02:38:11;4.20;99.90
25983;DHT22;13773;48.868;10.730;2024-02-23T02:40:37;4.20;99.90
25983;DHT22;13773;48.868;10.730;2024-02-23T02:43:03;4.10;99.90
25983;DHT22;13773;48.868;10.730;2024-02-23T02:45:29;4.10;99.90
25983;DHT22;13773;48.868;10.730;2024-02-23T02:47:55;4.10;99.90
25983;DHT22;13773;48.868;10.730;2024-02-23T02:50:21;4.10;99.90
25983;DHT22;13773;48.868;10.730;2024-02-23T02:52:47;4.10;99.90
25983;DHT22;13773;48.868;10.730;2024-02-23T02:55:13;4.10;99.90
25983;DHT22;13773;48.868;10.730;2024-02-23T02:57:39;4.00;99.90
25983;DHT22;13773;48.868;10.730;2024-02-23T03:00:05;4.00;99.90
25983;DHT22;13773;48.868;10.730;2024-02-23T03:02:31;4.00;99.90
25983;DHT22;13773;48.868;10.730;2024-02-23T03:04:57;4.00;99.90
25983;DHT22;13773;48.868;10.730;2024-02-23T03:07:23;4.00;99.90
25983;DHT22;13773;48.868;10.730;2024-02-23T03:09:48;4.00;99.90
25983;DHT22;13773;48.868;10.730;2024-02-23T03:12:16;4.00;99.90
25983;DHT22;13773;48.868;10.730;2024-02-23T03:14:43;4.00;99.90
25983;DHT22;13773;48.868;10.730;2024-02-23T03:17:09;4.00;99.90
25983;DHT22;13773;48.868;10.730;2024-02-23T03:19:35;4.00;99.90
25983;DHT22;13773;48.868;10.730;2024-02-23T03:22:01;4.00;99.90
25983;DHT22;13773;48.868;10.730;2024-02-23T03:24:26;4.00;99.90
25983;DHT22;13773;48.868;10.730;2024-02-23T03:26:52;4.00;99.90
25983;DHT22;13773;48.868;10.730;2024-02-23T03:29:18;3.90;99.90
25983;DHT22;13773;48.868;10.730;2024-02-23T03:31:43;3.90;99.90
25983;DHT22;13773;48.868;10.730;2024-02-23T03:34:09;3.90;99.90
25983;DHT22;13773;48.868;10.730;2024-02-23T03:36:36;3.90;99.90
25983;DHT22;13773;48.868;10.730;2024-02-23T03:39:02;3.90;99.90
25983;DHT22;13773;48.868;10.730;2024-02-23T03:41:28;3.90;99.90
25983;DHT22;13773;48.868;10.730;2024-02-23T03:43:53;3.90;99.90
25983;DHT22;13773;48.868;10.730;2024-02-23T03:46:19;3.80;99.90
25983;DHT22;13773;48.868;10.730;2024-02-23T03:48:45;3.80;99.90
25983;DHT22;13773;48.868;10.730;2024-02-23T03:51:11;3.80;99.90
25983;DHT22;13773;48.868;10.730;2024-02-23T03:53:37;3.90;99.90
25983;DHT22;13773;48.868;10.730;2024-02-23T03:56:03;3.90;99.90
25983;DHT22;13773;48.868;10.730;2024-02-23T03:58:29;3.90;99.90
25983;DHT22;13773;48.868;10.730;2024-02-23T04:00:55;3.90;99.90
25983;DHT22;13773;48.868;10.730;2024-02-23T04:03:20;3.90;99.90
25983;DHT22;13773;48.868;10.730;2024-02-23T04:05:46;3.90;99.90
25983;DHT22;13773;48.868;10.730;2024-02-23T04:08:12;3.80;99.90
25983;DHT22;13773;48.868;10.730;2024-02-23T04:10:37;3.80;99.90
25983;DHT22;13773;48.868;10.730;2024-02-23T04:13:03;3.90;99.90
25983;DHT22;13773;48.868;10.730;2024-02-23T04:15:29;3.90;99.90
25983;DHT22;13773;48.868;10.730;2024-02-23T04:17:55;3.90;99.90
25983;DHT22;13773;48.868;10.730;2024-02-23T04:20:20;4.00;99.90
25983;DHT22;13773;48.868;10.730;2024-02-23T04:22:46;4.00;99.90
25983;DHT22;13773;48.868;10.730;2024-02-23T04:25:12;3.90;99.90
25983;DHT22;13773;48.868;10.730;2024-02-23T04:27:38;3.90;99.90
25983;DHT22;13773;48.868;10.730;2024-02-23T04:30:04;3.80;99.90
25983;DHT22;13773;48.868;10.730;2024-02-23T04:32:30;3.80;99.90
25983;DHT22;13773;48.868;10.730;2024-02-23T04:34:56;3.80;99.90
25983;DHT22;13773;48.868;10.730;2024-02-23T04:37:22;3.80;99.90
25983;DHT22;13773;48.868;10.730;2024-02-23T04:39:47;4.00;99.90
25983;DHT22;13773;48.868;10.730;2024-02-23T04:42:13;3.80;99.90
25983;DHT22;13773;48.868;10.730;2024-02-23T04:44:41;3.80;99.90
25983;DHT22;13773;48.868;10.730;2024-02-23T04:47:07;3.80;99.90
25983;DHT22;13773;48.868;10.730;2024-02-23T04:49:33;3.80;99.90
25983;DHT22;13773;48.868;10.730;2024-02-23T04:51:58;3.80;99.90
25983;DHT22;13773;48.868;10.730;2024-02-23T04:54:24;3.80;99.90
25983;DHT22;13773;48.868;10.730;2024-02-23T04:56:50;3.80;99.90
25983;DHT22;13773;48.868;10.730;2024-02-23T04:59:16;3.70;99.90
25983;DHT22;13773;48.868;10.730;2024-02-23T05:01:41;3.70;99.90
25983;DHT22;13773;48.868;10.730;2024-02-23T05:04:08;3.60;99.90
25983;DHT22;13773;48.868;10.730;2024-02-23T05:06:34;3.60;99.90
25983;DHT22;13773;48.868;10.730;2024-02-23T05:09:05;3.50;99.90
25983;DHT22;13773;48.868;10.730;2024-02-23T05:11:34;3.50;99.90
25983;DHT22;13773;48.868;10.730;2024-02-23T05:14:00;3.40;99.90
25983;DHT22;13773;48.868;10.730;2024-02-23T05:16:26;3.40;99.90
25983;DHT22;13773;48.868;10.730;2024-02-23T05:18:51;3.40;99.90
25983;DHT22;13773;48.868;10.730;2024-02-23T05:21:17;3.40;99.90
25983;DHT22;13773;48.868;10.730;2024-02-23T05:23:43;3.40;99.90
25983;DHT22;13773;48.868;10.730;2024-02-23T05:26:08;3.40;99.90
25983;DHT22;13773;48.868;10.730;2024-02-23T05:28:34;3.40;99.90
25983;DHT22;13773;48.868;10.730;2024-02-23T05:31:02;3.40;99.90
25983;DHT22;13773;48.868;10.730;2024-02-23T05:33:29;3.30;99.90
25983;DHT22;13773;48.868;10.730;2024-02-23T05:35:55;3.30;99.90
25983;DHT22;13773;48.868;10.730;2024-02-23T05:38:20;3.30;99.90
25983;DHT22;13773;48.868;10.730;2024-02-23T05:40:46;3.30;99.90
25983;DHT22;13773;48.868;10.730;2024-02-23T05:43:14;3.20;99.90
25983;DHT22;13773;48.868;10.730;2024-02-23T05:45:40;3.30;99.90
25983;DHT22;13773;48.868;10.730;2024-02-23T05:48:06;3.30;99.90
25983;DHT22;13773;48.868;10.730;2024-02-23T05:50:32;3.20;99.90
25983;DHT22;13773;48.868;10.730;2024-02-23T05:52:58;3.30;99.90
25983;DHT22;13773;48.868;10.730;2024-02-23T05:55:24;3.30;99.90
25983;DHT22;13773;48.868;10.730;2024-02-23T05:57:50;3.30;99.90
25983;DHT22;13773;48.868;10.730;2024-02-23T06:00:18;3.50;99.90
25983;DHT22;13773;48.868;10.730;2024-02-23T06:02:45;3.30;99.90
25983;DHT22;13773;48.868;10.730;2024-02-23T06:05:12;3.30;99.90
25983;DHT22;13773;48.868;10.730;2024-02-23T06:07:38;3.30;99.90
25983;DHT22;13773;48.868;10.730;2024-02-23T06:10:04;3.30;99.90
25983;DHT22;13773;48.868;10.730;2024-02-23T06:12:30;3.30;99.90
25983;DHT22;13773;48.868;10.730;2024-02-23T06:14:56;3.20;99.90
25983;DHT22;13773;48.868;10.730;2024-02-23T06:17:22;3.20;99.90
25983;DHT22;13773;48.868;10.730;2024-02-23T06:19:48;3.20;99.90
25983;DHT22;13773;48.868;10.730;2024-02-23T06:22:14;3.10;99.90
25983;DHT22;13773;48.868;10.730;2024-02-23T06:24:42;3.10;99.90
25983;DHT22;13773;48.868;10.730;2024-02-23T06:27:08;3.10;99.90
25983;DHT22;13773;48.868;10.730;2024-02-23T06:29:34;3.10;99.90
25983;DHT22;13773;48.868;10.730;2024-02-23T06:31:59;3.00;99.90
25983;DHT22;13773;48.868;10.730;2024-02-23T06:34:28;3.00;99.90
25983;DHT22;13773;48.868;10.730;2024-02-23T06:36:54;3.10;99.90
25983;DHT22;13773;48.868;10.730;2024-02-23T06:39:19;3.10;99.90
25983;DHT22;13773;48.868;10.730;2024-02-23T06:41:45;3.00;99.90
25983;DHT22;13773;48.868;10.730;2024-02-23T06:44:11;3.00;99.90
25983;DHT22;13773;48.868;10.730;2024-02-23T06:46:37;3.10;99.90
25983;DHT22;13773;48.868;10.730;2024-02-23T06:49:03;3.20;99.90
25983;DHT22;13773;48.868;10.730;2024-02-23T06:51:31;3.10;99.90
25983;DHT22;13773;48.868;10.730;2024-02-23T06:53:56;3.10;99.90
25983;DHT22;13773;48.868;10.730;2024-02-23T06:56:22;3.10;99.90
25983;DHT22;13773;48.868;10.730;2024-02-23T06:58:48;3.20;99.90
25983;DHT22;13773;48.868;10.730;2024-02-23T07:01:13;3.20;99.90
25983;DHT22;13773;48.868;10.730;2024-02-23T07:03:39;3.30;99.90
25983;DHT22;13773;48.868;10.730;2024-02-23T07:06:06;3.30;99.90
25983;DHT22;13773;48.868;10.730;2024-02-23T07:08:32;3.40;99.90
25983;DHT22;13773;48.868;10.730;2024-02-23T07:10:58;3.50;99.90
25983;DHT22;13773;48.868;10.730;2024-02-23T07:13:23;3.40;99.90
25983;DHT22;13773;48.868;10.730;2024-02-23T07:15:49;3.50;99.90
25983;DHT22;13773;48.868;10.730;2024-02-23T07:18:15;2.40;99.90
25983;DHT22;13773;48.868;10.730;2024-02-23T07:20:41;3.50;99.90
25983;DHT22;13773;48.868;10.730;2024-02-23T07:23:07;3.50;99.90
25983;DHT22;13773;48.868;10.730;2024-02-23T07:25:33;3.50;99.90
25983;DHT22;13773;48.868;10.730;2024-02-23T07:27:58;3.60;99.90
25983;DHT22;13773;48.868;10.730;2024-02-23T07:30:24;3.60;99.90
25983;DHT22;13773;48.868;10.730;2024-02-23T07:32:50;3.60;99.90
25983;DHT22;13773;48.868;10.730;2024-02-23T07:35:16;3.60;99.90
25983;DHT22;13773;48.868;10.730;2024-02-23T07:37:41;3.60;99.90
25983;DHT22;13773;48.868;10.730;2024-02-23T07:40:07;3.60;99.90
25983;DHT22;13773;48.868;10.730;2024-02-23T07:42:33;3.70;99.90
25983;DHT22;13773;48.868;10.730;2024-02-23T07:45:04;3.70;99.90
25983;DHT22;13773;48.868;10.730;2024-02-23T07:47:33;3.70;99.90
25983;DHT22;13773;48.868;10.730;2024-02-23T07:49:59;3.70;99.90
25983;DHT22;13773;48.868;10.730;2024-02-23T07:52:25;3.80;99.90
25983;DHT22;13773;48.868;10.730;2024-02-23T07:54:53;3.90;99.90
25983;DHT22;13773;48.868;10.730;2024-02-23T07:57:19;3.90;99.90
25983;DHT22;13773;48.868;10.730;2024-02-23T07:59:46;3.90;99.90
25983;DHT22;13773;48.868;10.730;2024-02-23T08:02:11;4.00;99.90
25983;DHT22;13773;48.868;10.730;2024-02-23T08:04:37;4.10;99.90
25983;DHT22;13773;48.868;10.730;2024-02-23T08:07:03;4.20;99.90
25983;DHT22;13773;48.868;10.730;2024-02-23T08:09:29;4.40;99.90
25983;DHT22;13773;48.868;10.730;2024-02-23T08:11:55;4.40;99.90
25983;DHT22;13773;48.868;10.730;2024-02-23T08:14:21;4.60;99.90
25983;DHT22;13773;48.868;10.730;2024-02-23T08:16:46;4.80;99.90
25983;DHT22;13773;48.868;10.730;2024-02-23T08:19:12;4.90;99.90
25983;DHT22;13773;48.868;10.730;2024-02-23T08:21:38;5.00;99.90
25983;DHT22;13773;48.868;10.730;2024-02-23T08:24:04;5.30;99.90
25983;DHT22;13773;48.868;10.730;2024-02-23T08:26:30;5.50;99.90
25983;DHT22;13773;48.868;10.730;2024-02-23T08:28:56;5.70;99.90
25983;DHT22;13773;48.868;10.730;2024-02-23T08:31:21;6.00;99.90
25983;DHT22;13773;48.868;10.730;2024-02-23T08:33:47;6.10;99.90
25983;DHT22;13773;48.868;10.730;2024-02-23T08:36:13;6.10;99.90
25983;DHT22;13773;48.868;10.730;2024-02-23T08:38:38;6.10;99.90
25983;DHT22;13773;48.868;10.730;2024-02-23T08:41:04;6.00;99.90
25983;DHT22;13773;48.868;10.730;2024-02-23T08:43:30;5.90;99.90
25983;DHT22;13773;48.868;10.730;2024-02-23T08:45:55;5.90;99.90
25983;DHT22;13773;48.868;10.730;2024-02-23T08:48:21;5.80;99.90
25983;DHT22;13773;48.868;10.730;2024-02-23T08:50:47;5.80;99.90
25983;DHT22;13773;48.868;10.730;2024-02-23T08:53:12;5.80;99.90
25983;DHT22;13773;48.868;10.730;2024-02-23T08:55:38;5.80;99.90
25983;DHT22;13773;48.868;10.730;2024-02-23T08:58:04;5.70;99.90
25983;DHT22;13773;48.868;10.730;2024-02-23T09:00:31;5.60;99.90
25983;DHT22;13773;48.868;10.730;2024-02-23T09:02:57;5.70;99.90
25983;DHT22;13773;48.868;10.730;2024-02-23T09:05:23;5.70;99.90
25983;DHT22;13773;48.868;10.730;2024-02-23T09:07:48;5.70;99.90
25983;DHT22;13773;48.868;10.730;2024-02-23T09:10:14;5.70;99.90
25983;DHT22;13773;48.868;10.730;2024-02-23T09:12:40;5.70;99.90
25983;DHT22;13773;48.868;10.730;2024-02-23T09:15:06;5.60;99.90
25983;DHT22;13773;48.868;10.730;2024-02-23T09:17:31;5.60;99.90
25983;DHT22;13773;48.868;10.730;2024-02-23T09:19:57;5.70;99.90
25983;DHT22;13773;48.868;10.730;2024-02-23T09:22:23;5.70;99.90
25983;DHT22;13773;48.868;10.730;2024-02-23T09:24:49;5.80;99.90
25983;DHT22;13773;48.868;10.730;2024-02-23T09:27:14;5.80;99.90
25983;DHT22;13773;48.868;10.730;2024-02-23T09:29:41;5.90;99.90
25983;DHT22;13773;48.868;10.730;2024-02-23T09:32:09;6.00;99.90
25983;DHT22;13773;48.868;10.730;2024-02-23T09:34:35;5.90;99.90
25983;DHT22;13773;48.868;10.730;2024-02-23T09:37:01;5.90;99.90
25983;DHT22;13773;48.868;10.730;2024-02-23T09:39:27;5.90;99.90
25983;DHT22;13773;48.868;10.730;2024-02-23T09:41:56;5.90;99.90
25983;DHT22;13773;48.868;10.730;2024-02-23T09:44:32;5.90;99.90
25983;DHT22;13773;48.868;10.730;2024-02-23T09:47:03;5.90;99.90
25983;DHT22;13773;48.868;10.730;2024-02-23T09:49:38;5.80;99.90
25983;DHT22;13773;48.868;10.730;2024-02-23T09:52:07;5.80;99.90
25983;DHT22;13773;48.868;10.730;2024-02-23T09:54:33;5.90;99.90
25983;DHT22;13773;48.868;10.730;2024-02-23T09:57:00;5.90;99.90
25983;DHT22;13773;48.868;10.730;2024-02-23T09:59:26;5.90;99.90
25983;DHT22;13773;48.868;10.730;2024-02-23T10:01:53;5.90;99.90
25983;DHT22;13773;48.868;10.730;2024-02-23T10:04:19;5.90;99.90
25983;DHT22;13773;48.868;10.730;2024-02-23T10:06:45;5.80;99.90
25983;DHT22;13773;48.868;10.730;2024-02-23T10:09:10;5.80;99.90
25983;DHT22;13773;48.868;10.730;2024-02-23T10:11:38;5.80;99.90
25983;DHT22;13773;48.868;10.730;2024-02-23T10:14:04;5.70;99.90
25983;DHT22;13773;48.868;10.730;2024-02-23T10:16:30;5.80;99.90
25983;DHT22;13773;48.868;10.730;2024-02-23T10:18:57;5.80;99.90
25983;DHT22;13773;48.868;10.730;2024-02-23T10:21:23;5.80;99.90
25983;DHT22;13773;48.868;10.730;2024-02-23T10:23:50;5.70;99.90
25983;DHT22;13773;48.868;10.730;2024-02-23T10:26:17;5.80;99.90
25983;DHT22;13773;48.868;10.730;2024-02-23T10:28:45;5.80;99.90
25983;DHT22;13773;48.868;10.730;2024-02-23T10:31:12;5.90;99.90
25983;DHT22;13773;48.868;10.730;2024-02-23T10:33:38;6.00;99.90
25983;DHT22;13773;48.868;10.730;2024-02-23T10:36:05;6.00;99.90
25983;DHT22;13773;48.868;10.730;2024-02-23T10:38:35;5.90;99.90
25983;DHT22;13773;48.868;10.730;2024-02-23T10:41:05;6.10;99.90
25983;DHT22;13773;48.868;10.730;2024-02-23T10:43:41;5.90;99.90
25983;DHT22;13773;48.868;10.730;2024-02-23T10:46:10;6.00;99.90
25983;DHT22;13773;48.868;10.730;2024-02-23T10:48:40;6.00;99.90
25983;DHT22;13773;48.868;10.730;2024-02-23T10:51:06;6.20;99.90
25983;DHT22;13773;48.868;10.730;2024-02-23T10:53:33;6.10;99.90
25983;DHT22;13773;48.868;10.730;2024-02-23T10:56:00;6.20;99.90
25983;DHT22;13773;48.868;10.730;2024-02-23T10:58:26;6.10;99.90
25983;DHT22;13773;48.868;10.730;2024-02-23T11:00:56;6.10;99.90
25983;DHT22;13773;48.868;10.730;2024-02-23T11:03:27;6.10;99.90
25983;DHT22;13773;48.868;10.730;2024-02-23T11:05:53;6.00;99.90
25983;DHT22;13773;48.868;10.730;2024-02-23T11:08:20;6.20;99.90
25983;DHT22;13773;48.868;10.730;2024-02-23T11:10:49;6.20;99.90
25983;DHT22;13773;48.868;10.730;2024-02-23T11:13:18;6.20;99.90
25983;DHT22;13773;48.868;10.730;2024-02-23T11:15:44;6.20;99.90
25983;DHT22;13773;48.868;10.730;2024-02-23T11:18:23;6.30;99.90
25983;DHT22;13773;48.868;10.730;2024-02-23T11:20:56;6.40;99.90
25983;DHT22;13773;48.868;10.730;2024-02-23T11:23:24;6.30;99.90
25983;DHT22;13773;48.868;10.730;2024-02-23T11:28:28;6.30;99.90
25983;DHT22;13773;48.868;10.730;2024-02-23T11:30:54;6.40;99.90
25983;DHT22;13773;48.868;10.730;2024-02-23T11:33:29;6.50;99.90
25983;DHT22;13773;48.868;10.730;2024-02-23T11:36:07;6.50;99.90
25983;DHT22;13773;48.868;10.730;2024-02-23T11:38:33;6.50;99.90
25983;DHT22;13773;48.868;10.730;2024-02-23T11:41:00;6.50;99.90
25983;DHT22;13773;48.868;10.730;2024-02-23T11:43:26;6.50;99.90
25983;DHT22;13773;48.868;10.730;2024-02-23T11:45:53;6.50;99.90
25983;DHT22;13773;48.868;10.730;2024-02-23T11:48:19;6.50;99.90
25983;DHT22;13773;48.868;10.730;2024-02-23T11:50:45;6.50;99.90
25983;DHT22;13773;48.868;10.730;2024-02-23T11:53:14;6.50;99.90
25983;DHT22;13773;48.868;10.730;2024-02-23T11:55:39;6.40;99.90
25983;DHT22;13773;48.868;10.730;2024-02-23T11:58:05;6.50;99.90
25983;DHT22;13773;48.868;10.730;2024-02-23T12:00:32;6.40;99.90
25983;DHT22;13773;48.868;10.730;2024-02-23T12:02:58;6.30;99.90
25983;DHT22;13773;48.868;10.730;2024-02-23T12:05:24;6.30;99.90
25983;DHT22;13773;48.868;10.730;2024-02-23T12:07:50;6.30;99.90
25983;DHT22;13773;48.868;10.730;2024-02-23T12:10:16;6.30;99.90
25983;DHT22;13773;48.868;10.730;2024-02-23T12:12:42;6.40;99.90
25983;DHT22;13773;48.868;10.730;2024-02-23T12:15:08;6.40;99.90
25983;DHT22;13773;48.868;10.730;2024-02-23T12:17:37;6.40;99.90
25983;DHT22;13773;48.868;10.730;2024-02-23T12:20:03;6.30;99.90
25983;DHT22;13773;48.868;10.730;2024-02-23T12:22:29;6.30;99.90
25983;DHT22;13773;48.868;10.730;2024-02-23T12:24:59;6.30;99.90
25983;DHT22;13773;48.868;10.730;2024-02-23T12:27:25;6.30;99.90
25983;DHT22;13773;48.868;10.730;2024-02-23T12:29:55;6.30;99.90
25983;DHT22;13773;48.868;10.730;2024-02-23T12:32:21;6.30;99.90
25983;DHT22;13773;48.868;10.730;2024-02-23T12:34:47;6.20;99.90
25983;DHT22;13773;48.868;10.730;2024-02-23T12:37:17;6.20;99.90
25983;DHT22;13773;48.868;10.730;2024-02-23T12:39:43;6.20;99.90
25983;DHT22;13773;48.868;10.730;2024-02-23T12:42:09;6.30;99.90
25983;DHT22;13773;48.868;10.730;2024-02-23T12:44:35;6.50;99.90
25983;DHT22;13773;48.868;10.730;2024-02-23T12:47:01;6.50;99.90
25983;DHT22;13773;48.868;10.730;2024-02-23T12:49:26;6.40;99.90
25983;DHT22;13773;48.868;10.730;2024-02-23T12:51:52;6.50;99.90
25983;DHT22;13773;48.868;10.730;2024-02-23T12:54:18;6.50;99.90
25983;DHT22;13773;48.868;10.730;2024-02-23T12:56:44;6.60;99.90
25983;DHT22;13773;48.868;10.730;2024-02-23T12:59:10;6.60;99.90
25983;DHT22;13773;48.868;10.730;2024-02-23T13:01:36;6.50;99.90
25983;DHT22;13773;48.868;10.730;2024-02-23T13:04:03;6.40;99.90
25983;DHT22;13773;48.868;10.730;2024-02-23T13:06:38;6.50;99.90
25983;DHT22;13773;48.868;10.730;2024-02-23T13:09:05;6.30;99.90
25983;DHT22;13773;48.868;10.730;2024-02-23T13:11:34;6.20;99.90
25983;DHT22;13773;48.868;10.730;2024-02-23T13:14:00;6.10;99.90
25983;DHT22;13773;48.868;10.730;2024-02-23T13:16:25;6.10;99.90
25983;DHT22;13773;48.868;10.730;2024-02-23T13:18:51;6.00;99.90
25983;DHT22;13773;48.868;10.730;2024-02-23T13:21:18;6.00;99.90
25983;DHT22;13773;48.868;10.730;2024-02-23T13:23:44;6.10;99.90
25983;DHT22;13773;48.868;10.730;2024-02-23T13:26:09;6.10;99.90
25983;DHT22;13773;48.868;10.730;2024-02-23T13:28:36;6.00;99.90
25983;DHT22;13773;48.868;10.730;2024-02-23T13:31:02;5.90;99.90
25983;DHT22;13773;48.868;10.730;2024-02-23T13:33:28;6.00;99.90
25983;DHT22;13773;48.868;10.730;2024-02-23T13:35:54;6.10;99.90
25983;DHT22;13773;48.868;10.730;2024-02-23T13:38:20;6.20;99.90
25983;DHT22;13773;48.868;10.730;2024-02-23T13:40:47;6.20;99.90
25983;DHT22;13773;48.868;10.730;2024-02-23T13:43:12;6.10;99.90
25983;DHT22;13773;48.868;10.730;2024-02-23T13:45:51;6.20;99.90
25983;DHT22;13773;48.868;10.730;2024-02-23T13:48:18;6.30;99.90
25983;DHT22;13773;48.868;10.730;2024-02-23T13:50:47;6.20;99.90
25983;DHT22;13773;48.868;10.730;2024-02-23T13:53:13;6.10;99.90
25983;DHT22;13773;48.868;10.730;2024-02-23T13:55:39;6.00;99.90
25983;DHT22;13773;48.868;10.730;2024-02-23T13:58:06;5.90;99.90
25983;DHT22;13773;48.868;10.730;2024-02-23T14:00:32;5.80;99.90
25983;DHT22;13773;48.868;10.730;2024-02-23T14:02:57;5.80;99.90
25983;DHT22;13773;48.868;10.730;2024-02-23T14:05:23;5.80;99.90
25983;DHT22;13773;48.868;10.730;2024-02-23T14:07:51;5.80;99.90
25983;DHT22;13773;48.868;10.730;2024-02-23T14:10:17;5.80;99.90
25983;DHT22;13773;48.868;10.730;2024-02-23T14:12:42;5.90;99.90
25983;DHT22;13773;48.868;10.730;2024-02-23T14:15:09;5.90;99.90
25983;DHT22;13773;48.868;10.730;2024-02-23T14:17:35;5.90;99.90
25983;DHT22;13773;48.868;10.730;2024-02-23T14:20:02;5.90;99.90
25983;DHT22;13773;48.868;10.730;2024-02-23T14:22:28;6.00;99.90
25983;DHT22;13773;48.868;10.730;2024-02-23T14:24:54;6.00;99.90
25983;DHT22;13773;48.868;10.730;2024-02-23T14:27:20;6.10;99.90
25983;DHT22;13773;48.868;10.730;2024-02-23T14:29:46;6.10;99.90
25983;DHT22;13773;48.868;10.730;2024-02-23T14:32:18;6.10;99.90
25983;DHT22;13773;48.868;10.730;2024-02-23T14:34:44;6.00;99.90
25983;DHT22;13773;48.868;10.730;2024-02-23T14:37:11;6.00;99.90
25983;DHT22;13773;48.868;10.730;2024-02-23T14:39:36;5.90;99.90
25983;DHT22;13773;48.868;10.730;2024-02-23T14:42:02;5.90;99.90
25983;DHT22;13773;48.868;10.730;2024-02-23T14:44:29;5.90;99.90
25983;DHT22;13773;48.868;10.730;2024-02-23T14:46:54;5.80;99.90
25983;DHT22;13773;48.868;10.730;2024-02-23T14:49:20;5.90;99.90
25983;DHT22;13773;48.868;10.730;2024-02-23T14:51:46;5.80;99.90
25983;DHT22;13773;48.868;10.730;2024-02-23T14:54:14;5.80;99.90
25983;DHT22;13773;48.868;10.730;2024-02-23T14:56:39;6.90;99.90
25983;DHT22;13773;48.868;10.730;2024-02-23T14:59:07;5.80;99.90
25983;DHT22;13773;48.868;10.730;2024-02-23T15:01:38;5.90;99.90
25983;DHT22;13773;48.868;10.730;2024-02-23T15:04:07;5.90;99.90
25983;DHT22;13773;48.868;10.730;2024-02-23T15:06:33;5.80;99.90
25983;DHT22;13773;48.868;10.730;2024-02-23T15:08:59;5.80;99.90
25983;DHT22;13773;48.868;10.730;2024-02-23T15:11:25;5.70;99.90
25983;DHT22;13773;48.868;10.730;2024-02-23T15:13:51;5.80;99.90
25983;DHT22;13773;48.868;10.730;2024-02-23T15:16:17;5.80;99.90
25983;DHT22;13773;48.868;10.730;2024-02-23T15:18:42;5.80;99.90
25983;DHT22;13773;48.868;10.730;2024-02-23T15:21:08;5.60;99.90
25983;DHT22;13773;48.868;10.730;2024-02-23T15:23:34;5.60;99.90
25983;DHT22;13773;48.868;10.730;2024-02-23T15:25:59;5.50;99.90
25983;DHT22;13773;48.868;10.730;2024-02-23T15:28:25;5.50;99.90